Pagrindinis puslapis
METAR-TAF:

METAR-TAF

Oro uostai :

Pskovas, Rusija

platuma: 57-47-06N, ilguma: 028-23-54E, Aukštis: 47 m

Dabartinis oras

Ataskaita buvo paskelbta 39 minutes, ne 03:00 UTC
Vėjas 8 kt iš Pietvakarių, svyruoja nuo Pietų ir Vakarų/Pietvakarių
Temperatūra 17°C
Drėgmė 68%
Slėgis 1021 hPa
Matomumas: 9000 m

METAR: ULOO 240300Z AUTO 22004MPS 180V250 9000 // ///089/// 17/11 Q1021 RMK QFE761

Laikas: 06:39 (03:39 UTC)

Prognozė

Ataskaita buvo paskelbta 1 valandą ir 44 minutes, ne 01:55 UTC
Prognozė galioja nuo 24 metu 03 UTC su 24 metu 12 UTC
Vėjas 10 kt iš Vakarų/Pietvakarių su gūsio iki 21 kt
Matomumas: 6000 m
Su prošvaistėmis ne aukštis 2000 ft
Laikinai
nuo 24 metu 03 UTC su 24 metu 12 UTC
Matomumas: 3100 m
Su prošvaistėmis ne aukštis 1100 ft
Su prošvaistėmis ne aukštis 2000 ft, Liūtiniai kamuoliniai debesys.
lietus, rūkana
Tapsmas
nuo 24 metu 11 UTC su 24 metu 12 UTC
Vėjas 10 kt iš Vakarų su gūsio iki 21 kt

TAF: ULOO 240155Z 2403/2412 24005G11MPS 6000 BKN020 TEMPO 2403/2412 3100 -SHRA BR BKN011 BKN020CB BECMG 2411/2412 26005G11MPS

Orai ataskaitas ir orų prognozės (METAR, TAF).

turimą stotys yra geltonos ir raudonos taškus žemėlapyje.

Perkelti pele per norėdami pamatyti stoties vardą.

Tada spustelėkite, norėdami matyti oro stebėjimo ir prognozės.

Norėdami pakeisti žemėlapį: spustelėkite ant žalios mygtukų su juodo kryžiaus žemyn,; žalią mygtuką su brūkšneliu, jei norite nutolinti; arba žalių rodyklių gretimoms žemėlapius.


METAR-TAF: